sensor_id;sensor_type;location;lat;lon;timestamp;P1;durP1;ratioP1;P2;durP2;ratioP2
3259;SDS011;68938;48.150;14.004;2024-02-26T00:00:13;56.90;;;22.37;;
3259;SDS011;68938;48.150;14.004;2024-02-26T00:02:40;60.70;;;24.87;;
3259;SDS011;68938;48.150;14.004;2024-02-26T00:05:07;63.80;;;25.00;;
3259;SDS011;68938;48.150;14.004;2024-02-26T00:07:34;41.27;;;23.63;;
3259;SDS011;68938;48.150;14.004;2024-02-26T00:10:01;53.50;;;24.63;;
3259;SDS011;68938;48.150;14.004;2024-02-26T00:12:29;42.80;;;22.57;;
3259;SDS011;68938;48.150;14.004;2024-02-26T00:14:56;51.50;;;22.67;;
3259;SDS011;68938;48.150;14.004;2024-02-26T00:17:23;45.53;;;24.23;;
3259;SDS011;68938;48.150;14.004;2024-02-26T00:19:50;44.70;;;24.17;;
3259;SDS011;68938;48.150;14.004;2024-02-26T00:22:17;32.27;;;22.23;;
3259;SDS011;68938;48.150;14.004;2024-02-26T00:24:44;41.80;;;24.30;;
3259;SDS011;68938;48.150;14.004;2024-02-26T00:27:11;51.07;;;24.67;;
3259;SDS011;68938;48.150;14.004;2024-02-26T00:29:38;48.47;;;26.50;;
3259;SDS011;68938;48.150;14.004;2024-02-26T00:32:05;41.83;;;22.50;;
3259;SDS011;68938;48.150;14.004;2024-02-26T00:34:32;44.17;;;23.00;;
3259;SDS011;68938;48.150;14.004;2024-02-26T00:36:59;67.87;;;27.03;;
3259;SDS011;68938;48.150;14.004;2024-02-26T00:39:26;62.30;;;26.43;;
3259;SDS011;68938;48.150;14.004;2024-02-26T00:41:53;51.70;;;24.80;;
3259;SDS011;68938;48.150;14.004;2024-02-26T00:44:20;30.90;;;23.57;;
3259;SDS011;68938;48.150;14.004;2024-02-26T00:46:47;46.03;;;24.30;;
3259;SDS011;68938;48.150;14.004;2024-02-26T00:49:14;34.20;;;25.67;;
3259;SDS011;68938;48.150;14.004;2024-02-26T00:51:41;48.30;;;25.20;;
3259;SDS011;68938;48.150;14.004;2024-02-26T00:54:08;76.97;;;28.63;;
3259;SDS011;68938;48.150;14.004;2024-02-26T00:56:35;54.10;;;26.07;;
3259;SDS011;68938;48.150;14.004;2024-02-26T00:59:02;61.03;;;25.97;;
3259;SDS011;68938;48.150;14.004;2024-02-26T01:01:29;32.53;;;23.03;;
3259;SDS011;68938;48.150;14.004;2024-02-26T01:03:56;101.27;;;27.83;;
3259;SDS011;68938;48.150;14.004;2024-02-26T01:06:23;39.13;;;23.77;;
3259;SDS011;68938;48.150;14.004;2024-02-26T01:08:50;42.80;;;25.67;;
3259;SDS011;68938;48.150;14.004;2024-02-26T01:11:17;59.43;;;25.93;;
3259;SDS011;68938;48.150;14.004;2024-02-26T01:13:44;48.50;;;25.60;;
3259;SDS011;68938;48.150;14.004;2024-02-26T01:16:11;49.13;;;26.03;;
3259;SDS011;68938;48.150;14.004;2024-02-26T01:18:38;43.10;;;25.27;;
3259;SDS011;68938;48.150;14.004;2024-02-26T01:21:05;51.57;;;26.70;;
3259;SDS011;68938;48.150;14.004;2024-02-26T01:23:32;59.60;;;29.73;;
3259;SDS011;68938;48.150;14.004;2024-02-26T01:25:59;60.63;;;25.47;;
3259;SDS011;68938;48.150;14.004;2024-02-26T01:28:26;48.27;;;25.97;;
3259;SDS011;68938;48.150;14.004;2024-02-26T01:30:53;45.73;;;23.27;;
3259;SDS011;68938;48.150;14.004;2024-02-26T01:33:20;62.33;;;25.33;;
3259;SDS011;68938;48.150;14.004;2024-02-26T01:35:47;69.13;;;26.27;;
3259;SDS011;68938;48.150;14.004;2024-02-26T01:38:14;56.13;;;23.87;;
3259;SDS011;68938;48.150;14.004;2024-02-26T01:40:41;71.73;;;27.20;;
3259;SDS011;68938;48.150;14.004;2024-02-26T01:43:08;47.37;;;23.97;;
3259;SDS011;68938;48.150;14.004;2024-02-26T01:45:35;42.73;;;25.87;;
3259;SDS011;68938;48.150;14.004;2024-02-26T01:48:02;43.57;;;26.83;;
3259;SDS011;68938;48.150;14.004;2024-02-26T01:50:30;51.37;;;27.37;;
3259;SDS011;68938;48.150;14.004;2024-02-26T01:52:57;39.70;;;24.77;;
3259;SDS011;68938;48.150;14.004;2024-02-26T01:55:24;32.90;;;24.17;;
3259;SDS011;68938;48.150;14.004;2024-02-26T01:57:52;44.33;;;25.00;;
3259;SDS011;68938;48.150;14.004;2024-02-26T02:00:20;71.13;;;26.77;;
3259;SDS011;68938;48.150;14.004;2024-02-26T02:02:49;31.43;;;22.07;;
3259;SDS011;68938;48.150;14.004;2024-02-26T02:05:17;37.77;;;24.07;;
3259;SDS011;68938;48.150;14.004;2024-02-26T02:07:47;47.67;;;22.87;;
3259;SDS011;68938;48.150;14.004;2024-02-26T02:10:15;37.33;;;24.40;;
3259;SDS011;68938;48.150;14.004;2024-02-26T02:12:43;35.43;;;22.93;;
3259;SDS011;68938;48.150;14.004;2024-02-26T02:15:10;30.57;;;22.57;;
3259;SDS011;68938;48.150;14.004;2024-02-26T02:17:37;34.00;;;22.43;;
3259;SDS011;68938;48.150;14.004;2024-02-26T02:20:07;41.37;;;22.30;;
3259;SDS011;68938;48.150;14.004;2024-02-26T02:22:36;42.33;;;24.53;;
3259;SDS011;68938;48.150;14.004;2024-02-26T02:25:03;38.40;;;22.47;;
3259;SDS011;68938;48.150;14.004;2024-02-26T02:27:31;39.87;;;24.77;;
3259;SDS011;68938;48.150;14.004;2024-02-26T02:29:58;40.53;;;24.37;;
3259;SDS011;68938;48.150;14.004;2024-02-26T02:32:25;33.20;;;23.00;;
3259;SDS011;68938;48.150;14.004;2024-02-26T02:34:53;54.93;;;25.33;;
3259;SDS011;68938;48.150;14.004;2024-02-26T02:37:20;54.30;;;26.63;;
3259;SDS011;68938;48.150;14.004;2024-02-26T02:39:47;36.17;;;22.30;;
3259;SDS011;68938;48.150;14.004;2024-02-26T02:42:14;64.63;;;25.70;;
3259;SDS011;68938;48.150;14.004;2024-02-26T02:44:41;116.97;;;30.40;;
3259;SDS011;68938;48.150;14.004;2024-02-26T02:47:08;43.60;;;23.43;;
3259;SDS011;68938;48.150;14.004;2024-02-26T02:49:35;97.67;;;29.03;;
3259;SDS011;68938;48.150;14.004;2024-02-26T02:52:03;83.23;;;28.13;;
3259;SDS011;68938;48.150;14.004;2024-02-26T02:54:30;54.20;;;24.80;;
3259;SDS011;68938;48.150;14.004;2024-02-26T02:56:57;69.57;;;25.17;;
3259;SDS011;68938;48.150;14.004;2024-02-26T02:59:25;59.67;;;24.33;;
3259;SDS011;68938;48.150;14.004;2024-02-26T03:01:52;44.23;;;22.80;;
3259;SDS011;68938;48.150;14.004;2024-02-26T03:04:19;61.33;;;25.60;;
3259;SDS011;68938;48.150;14.004;2024-02-26T03:06:46;27.73;;;21.47;;
3259;SDS011;68938;48.150;14.004;2024-02-26T03:09:13;55.23;;;24.17;;
3259;SDS011;68938;48.150;14.004;2024-02-26T03:11:40;64.57;;;21.60;;
3259;SDS011;68938;48.150;14.004;2024-02-26T03:14:07;40.50;;;23.13;;
3259;SDS011;68938;48.150;14.004;2024-02-26T03:16:34;69.80;;;23.10;;
3259;SDS011;68938;48.150;14.004;2024-02-26T03:19:01;89.33;;;26.00;;
3259;SDS011;68938;48.150;14.004;2024-02-26T03:21:28;94.53;;;27.43;;
3259;SDS011;68938;48.150;14.004;2024-02-26T03:23:55;52.70;;;23.50;;
3259;SDS011;68938;48.150;14.004;2024-02-26T03:26:22;61.80;;;23.17;;
3259;SDS011;68938;48.150;14.004;2024-02-26T03:28:49;56.13;;;22.10;;
3259;SDS011;68938;48.150;14.004;2024-02-26T03:31:16;57.30;;;23.87;;
3259;SDS011;68938;48.150;14.004;2024-02-26T03:33:43;47.10;;;21.80;;
3259;SDS011;68938;48.150;14.004;2024-02-26T03:36:11;44.37;;;22.00;;
3259;SDS011;68938;48.150;14.004;2024-02-26T03:38:38;47.43;;;22.87;;
3259;SDS011;68938;48.150;14.004;2024-02-26T03:41:05;55.70;;;22.10;;
3259;SDS011;68938;48.150;14.004;2024-02-26T03:43:31;43.83;;;23.07;;
3259;SDS011;68938;48.150;14.004;2024-02-26T03:45:58;56.33;;;24.53;;
3259;SDS011;68938;48.150;14.004;2024-02-26T03:48:25;62.20;;;28.23;;
3259;SDS011;68938;48.150;14.004;2024-02-26T03:50:52;39.53;;;20.97;;
3259;SDS011;68938;48.150;14.004;2024-02-26T03:53:19;47.00;;;22.10;;
3259;SDS011;68938;48.150;14.004;2024-02-26T03:55:46;46.97;;;21.37;;
3259;SDS011;68938;48.150;14.004;2024-02-26T03:58:13;44.17;;;22.97;;
3259;SDS011;68938;48.150;14.004;2024-02-26T04:00:42;36.57;;;23.17;;
3259;SDS011;68938;48.150;14.004;2024-02-26T04:03:09;27.43;;;21.13;;
3259;SDS011;68938;48.150;14.004;2024-02-26T04:05:36;44.50;;;23.37;;
3259;SDS011;68938;48.150;14.004;2024-02-26T04:08:04;32.43;;;22.20;;
3259;SDS011;68938;48.150;14.004;2024-02-26T04:10:32;34.70;;;23.43;;
3259;SDS011;68938;48.150;14.004;2024-02-26T04:12:59;32.00;;;22.23;;
3259;SDS011;68938;48.150;14.004;2024-02-26T04:15:26;26.13;;;21.33;;
3259;SDS011;68938;48.150;14.004;2024-02-26T04:17:53;31.27;;;22.00;;
3259;SDS011;68938;48.150;14.004;2024-02-26T04:20:20;39.30;;;22.90;;
3259;SDS011;68938;48.150;14.004;2024-02-26T04:22:47;44.63;;;22.80;;
3259;SDS011;68938;48.150;14.004;2024-02-26T04:25:14;42.27;;;23.63;;
3259;SDS011;68938;48.150;14.004;2024-02-26T04:27:41;34.53;;;22.80;;
3259;SDS011;68938;48.150;14.004;2024-02-26T04:30:08;42.57;;;23.50;;
3259;SDS011;68938;48.150;14.004;2024-02-26T04:32:36;44.50;;;22.40;;
3259;SDS011;68938;48.150;14.004;2024-02-26T04:35:03;43.63;;;23.03;;
3259;SDS011;68938;48.150;14.004;2024-02-26T04:37:30;41.80;;;21.63;;
3259;SDS011;68938;48.150;14.004;2024-02-26T04:39:58;30.20;;;21.40;;
3259;SDS011;68938;48.150;14.004;2024-02-26T04:42:27;60.00;;;25.43;;
3259;SDS011;68938;48.150;14.004;2024-02-26T04:44:54;39.80;;;21.00;;
3259;SDS011;68938;48.150;14.004;2024-02-26T04:47:21;36.97;;;21.87;;
3259;SDS011;68938;48.150;14.004;2024-02-26T04:49:49;28.03;;;21.47;;
3259;SDS011;68938;48.150;14.004;2024-02-26T04:52:18;33.40;;;21.23;;
3259;SDS011;68938;48.150;14.004;2024-02-26T04:54:45;36.60;;;22.80;;
3259;SDS011;68938;48.150;14.004;2024-02-26T04:57:12;38.37;;;23.53;;
3259;SDS011;68938;48.150;14.004;2024-02-26T04:59:39;41.43;;;23.13;;
3259;SDS011;68938;48.150;14.004;2024-02-26T05:02:06;35.97;;;24.40;;
3259;SDS011;68938;48.150;14.004;2024-02-26T05:04:33;47.70;;;24.20;;
3259;SDS011;68938;48.150;14.004;2024-02-26T05:07:00;59.60;;;25.03;;
3259;SDS011;68938;48.150;14.004;2024-02-26T05:09:28;36.73;;;22.80;;
3259;SDS011;68938;48.150;14.004;2024-02-26T05:11:54;48.47;;;22.70;;
3259;SDS011;68938;48.150;14.004;2024-02-26T05:14:21;53.03;;;24.13;;
3259;SDS011;68938;48.150;14.004;2024-02-26T05:16:48;35.80;;;24.47;;
3259;SDS011;68938;48.150;14.004;2024-02-26T05:19:15;54.03;;;24.63;;
3259;SDS011;68938;48.150;14.004;2024-02-26T05:21:43;66.10;;;23.30;;
3259;SDS011;68938;48.150;14.004;2024-02-26T05:24:10;75.90;;;24.30;;
3259;SDS011;68938;48.150;14.004;2024-02-26T05:26:37;133.37;;;28.13;;
3259;SDS011;68938;48.150;14.004;2024-02-26T05:29:04;103.53;;;27.30;;
3259;SDS011;68938;48.150;14.004;2024-02-26T05:31:31;104.37;;;27.50;;
3259;SDS011;68938;48.150;14.004;2024-02-26T05:33:58;86.40;;;23.00;;
3259;SDS011;68938;48.150;14.004;2024-02-26T05:36:25;176.23;;;33.63;;
3259;SDS011;68938;48.150;14.004;2024-02-26T05:38:52;71.90;;;26.67;;
3259;SDS011;68938;48.150;14.004;2024-02-26T05:41:19;57.70;;;21.90;;
3259;SDS011;68938;48.150;14.004;2024-02-26T05:43:46;66.03;;;25.47;;
3259;SDS011;68938;48.150;14.004;2024-02-26T05:46:13;147.03;;;33.00;;
3259;SDS011;68938;48.150;14.004;2024-02-26T05:48:44;55.30;;;25.70;;
3259;SDS011;68938;48.150;14.004;2024-02-26T05:51:14;49.80;;;23.50;;
3259;SDS011;68938;48.150;14.004;2024-02-26T05:53:41;69.93;;;24.60;;
3259;SDS011;68938;48.150;14.004;2024-02-26T05:56:08;61.77;;;24.67;;
3259;SDS011;68938;48.150;14.004;2024-02-26T05:58:36;155.30;;;34.87;;
3259;SDS011;68938;48.150;14.004;2024-02-26T06:01:03;117.47;;;32.20;;
3259;SDS011;68938;48.150;14.004;2024-02-26T06:03:30;66.17;;;25.77;;
3259;SDS011;68938;48.150;14.004;2024-02-26T06:05:57;60.87;;;25.40;;
3259;SDS011;68938;48.150;14.004;2024-02-26T06:08:24;66.57;;;26.30;;
3259;SDS011;68938;48.150;14.004;2024-02-26T06:10:51;142.90;;;33.33;;
3259;SDS011;68938;48.150;14.004;2024-02-26T06:13:18;44.03;;;23.70;;
3259;SDS011;68938;48.150;14.004;2024-02-26T06:15:45;71.10;;;23.80;;
3259;SDS011;68938;48.150;14.004;2024-02-26T06:18:13;49.93;;;24.57;;
3259;SDS011;68938;48.150;14.004;2024-02-26T06:20:40;56.40;;;24.23;;
3259;SDS011;68938;48.150;14.004;2024-02-26T06:23:07;60.57;;;23.37;;
3259;SDS011;68938;48.150;14.004;2024-02-26T06:25:34;45.20;;;23.67;;
3259;SDS011;68938;48.150;14.004;2024-02-26T06:28:01;31.73;;;22.80;;
3259;SDS011;68938;48.150;14.004;2024-02-26T06:30:28;57.63;;;23.67;;
3259;SDS011;68938;48.150;14.004;2024-02-26T06:32:55;42.07;;;22.87;;
3259;SDS011;68938;48.150;14.004;2024-02-26T06:35:22;43.00;;;25.30;;
3259;SDS011;68938;48.150;14.004;2024-02-26T06:37:49;48.10;;;24.30;;
3259;SDS011;68938;48.150;14.004;2024-02-26T06:40:16;55.20;;;24.57;;
3259;SDS011;68938;48.150;14.004;2024-02-26T06:42:43;47.40;;;22.50;;
3259;SDS011;68938;48.150;14.004;2024-02-26T06:45:13;49.33;;;24.20;;
3259;SDS011;68938;48.150;14.004;2024-02-26T06:47:40;37.20;;;20.27;;
3259;SDS011;68938;48.150;14.004;2024-02-26T06:50:08;37.83;;;21.60;;
3259;SDS011;68938;48.150;14.004;2024-02-26T06:52:38;36.40;;;20.23;;
3259;SDS011;68938;48.150;14.004;2024-02-26T06:55:05;47.73;;;23.17;;
3259;SDS011;68938;48.150;14.004;2024-02-26T06:57:33;31.80;;;21.37;;
3259;SDS011;68938;48.150;14.004;2024-02-26T07:00:00;48.57;;;23.57;;
3259;SDS011;68938;48.150;14.004;2024-02-26T07:02:27;35.00;;;21.73;;
3259;SDS011;68938;48.150;14.004;2024-02-26T07:04:54;41.43;;;21.80;;
3259;SDS011;68938;48.150;14.004;2024-02-26T07:07:21;45.80;;;22.80;;
3259;SDS011;68938;48.150;14.004;2024-02-26T07:09:49;50.80;;;24.00;;
3259;SDS011;68938;48.150;14.004;2024-02-26T07:12:16;82.90;;;24.13;;
3259;SDS011;68938;48.150;14.004;2024-02-26T07:14:43;50.70;;;22.80;;
3259;SDS011;68938;48.150;14.004;2024-02-26T07:17:10;56.80;;;24.90;;
3259;SDS011;68938;48.150;14.004;2024-02-26T07:19:36;62.23;;;26.77;;
3259;SDS011;68938;48.150;14.004;2024-02-26T07:22:03;51.37;;;24.23;;
3259;SDS011;68938;48.150;14.004;2024-02-26T07:24:30;101.07;;;27.70;;
3259;SDS011;68938;48.150;14.004;2024-02-26T07:26:57;41.90;;;21.77;;
3259;SDS011;68938;48.150;14.004;2024-02-26T07:29:24;27.73;;;21.10;;
3259;SDS011;68938;48.150;14.004;2024-02-26T07:31:51;42.27;;;21.50;;
3259;SDS011;68938;48.150;14.004;2024-02-26T07:34:18;97.43;;;25.57;;
3259;SDS011;68938;48.150;14.004;2024-02-26T07:36:45;76.23;;;28.87;;
3259;SDS011;68938;48.150;14.004;2024-02-26T07:39:12;51.47;;;23.57;;
3259;SDS011;68938;48.150;14.004;2024-02-26T07:41:39;66.53;;;23.47;;
3259;SDS011;68938;48.150;14.004;2024-02-26T07:44:06;44.10;;;23.90;;
3259;SDS011;68938;48.150;14.004;2024-02-26T07:46:34;46.70;;;23.40;;
3259;SDS011;68938;48.150;14.004;2024-02-26T07:49:01;38.53;;;22.00;;
3259;SDS011;68938;48.150;14.004;2024-02-26T07:51:28;48.70;;;21.63;;
3259;SDS011;68938;48.150;14.004;2024-02-26T07:53:55;33.47;;;23.77;;
3259;SDS011;68938;48.150;14.004;2024-02-26T07:56:22;34.37;;;21.00;;
3259;SDS011;68938;48.150;14.004;2024-02-26T07:58:49;43.97;;;22.67;;
3259;SDS011;68938;48.150;14.004;2024-02-26T08:01:16;38.30;;;23.10;;
3259;SDS011;68938;48.150;14.004;2024-02-26T08:03:43;49.83;;;24.47;;
3259;SDS011;68938;48.150;14.004;2024-02-26T08:06:10;38.17;;;24.10;;
3259;SDS011;68938;48.150;14.004;2024-02-26T08:08:37;49.83;;;24.93;;
3259;SDS011;68938;48.150;14.004;2024-02-26T08:11:04;34.87;;;24.00;;
3259;SDS011;68938;48.150;14.004;2024-02-26T08:13:31;50.07;;;24.73;;
3259;SDS011;68938;48.150;14.004;2024-02-26T08:15:58;34.00;;;23.97;;
3259;SDS011;68938;48.150;14.004;2024-02-26T08:18:25;39.03;;;25.83;;
3259;SDS011;68938;48.150;14.004;2024-02-26T08:20:52;34.57;;;23.77;;
3259;SDS011;68938;48.150;14.004;2024-02-26T08:23:19;32.23;;;25.30;;
3259;SDS011;68938;48.150;14.004;2024-02-26T08:25:46;37.57;;;25.17;;
3259;SDS011;68938;48.150;14.004;2024-02-26T08:28:13;31.17;;;24.47;;
3259;SDS011;68938;48.150;14.004;2024-02-26T08:30:40;29.27;;;22.83;;
3259;SDS011;68938;48.150;14.004;2024-02-26T08:33:07;30.20;;;24.90;;
3259;SDS011;68938;48.150;14.004;2024-02-26T08:35:34;30.63;;;22.97;;
3259;SDS011;68938;48.150;14.004;2024-02-26T08:38:01;27.83;;;22.60;;
3259;SDS011;68938;48.150;14.004;2024-02-26T08:40:29;28.13;;;21.70;;
3259;SDS011;68938;48.150;14.004;2024-02-26T08:42:56;28.93;;;23.30;;
3259;SDS011;68938;48.150;14.004;2024-02-26T08:45:23;27.17;;;22.37;;
3259;SDS011;68938;48.150;14.004;2024-02-26T08:47:53;26.00;;;22.10;;
3259;SDS011;68938;48.150;14.004;2024-02-26T08:50:20;26.35;;;21.75;;
3259;SDS011;68938;48.150;14.004;2024-02-26T08:52:47;26.00;;;21.40;;
3259;SDS011;68938;48.150;14.004;2024-02-26T08:55:14;28.17;;;23.57;;
3259;SDS011;68938;48.150;14.004;2024-02-26T08:57:40;31.33;;;24.23;;
3259;SDS011;68938;48.150;14.004;2024-02-26T09:00:08;25.30;;;22.33;;
3259;SDS011;68938;48.150;14.004;2024-02-26T09:02:35;29.70;;;21.53;;
3259;SDS011;68938;48.150;14.004;2024-02-26T09:05:02;24.73;;;21.57;;
3259;SDS011;68938;48.150;14.004;2024-02-26T09:07:29;27.67;;;21.17;;
3259;SDS011;68938;48.150;14.004;2024-02-26T09:09:56;25.60;;;22.17;;
3259;SDS011;68938;48.150;14.004;2024-02-26T09:12:23;23.33;;;20.30;;
3259;SDS011;68938;48.150;14.004;2024-02-26T09:14:50;23.40;;;18.53;;
3259;SDS011;68938;48.150;14.004;2024-02-26T09:17:17;23.90;;;18.73;;
3259;SDS011;68938;48.150;14.004;2024-02-26T09:19:44;21.30;;;18.77;;
3259;SDS011;68938;48.150;14.004;2024-02-26T09:22:11;22.03;;;19.67;;
3259;SDS011;68938;48.150;14.004;2024-02-26T09:24:41;23.47;;;16.10;;
3259;SDS011;68938;48.150;14.004;2024-02-26T09:27:08;19.67;;;17.67;;
3259;SDS011;68938;48.150;14.004;2024-02-26T09:29:35;19.77;;;17.83;;
3259;SDS011;68938;48.150;14.004;2024-02-26T09:32:03;17.57;;;15.27;;
3259;SDS011;68938;48.150;14.004;2024-02-26T09:34:30;19.00;;;17.00;;
3259;SDS011;68938;48.150;14.004;2024-02-26T09:36:57;17.33;;;15.20;;
3259;SDS011;68938;48.150;14.004;2024-02-26T09:39:37;19.30;;;16.63;;
3259;SDS011;68938;48.150;14.004;2024-02-26T09:42:05;21.43;;;16.93;;
3259;SDS011;68938;48.150;14.004;2024-02-26T09:44:32;21.37;;;18.00;;
3259;SDS011;68938;48.150;14.004;2024-02-26T09:47:02;18.20;;;16.30;;
3259;SDS011;68938;48.150;14.004;2024-02-26T09:49:29;24.20;;;21.57;;
3259;SDS011;68938;48.150;14.004;2024-02-26T09:51:56;22.57;;;19.63;;
3259;SDS011;68938;48.150;14.004;2024-02-26T09:54:25;21.40;;;18.43;;
3259;SDS011;68938;48.150;14.004;2024-02-26T09:56:54;20.33;;;18.17;;
3259;SDS011;68938;48.150;14.004;2024-02-26T09:59:33;17.75;;;15.65;;
3259;SDS011;68938;48.150;14.004;2024-02-26T10:02:08;17.77;;;15.20;;
3259;SDS011;68938;48.150;14.004;2024-02-26T10:04:39;15.50;;;14.00;;
3259;SDS011;68938;48.150;14.004;2024-02-26T10:07:10;14.43;;;13.10;;
3259;SDS011;68938;48.150;14.004;2024-02-26T10:09:41;16.13;;;14.57;;
3259;SDS011;68938;48.150;14.004;2024-02-26T10:12:10;14.70;;;13.33;;
3259;SDS011;68938;48.150;14.004;2024-02-26T10:14:37;17.20;;;14.63;;
3259;SDS011;68938;48.150;14.004;2024-02-26T10:17:06;15.10;;;13.50;;
3259;SDS011;68938;48.150;14.004;2024-02-26T10:19:34;15.63;;;14.03;;
3259;SDS011;68938;48.150;14.004;2024-02-26T10:22:04;13.93;;;12.53;;
3259;SDS011;68938;48.150;14.004;2024-02-26T10:24:32;15.13;;;13.63;;
3259;SDS011;68938;48.150;14.004;2024-02-26T10:26:59;15.63;;;14.13;;
3259;SDS011;68938;48.150;14.004;2024-02-26T10:29:26;13.80;;;12.30;;
3259;SDS011;68938;48.150;14.004;2024-02-26T10:31:53;16.40;;;14.70;;
3259;SDS011;68938;48.150;14.004;2024-02-26T10:34:20;17.60;;;13.63;;
3259;SDS011;68938;48.150;14.004;2024-02-26T10:36:48;15.30;;;13.83;;
3259;SDS011;68938;48.150;14.004;2024-02-26T10:39:20;13.00;;;11.67;;
3259;SDS011;68938;48.150;14.004;2024-02-26T10:41:48;14.17;;;12.87;;
3259;SDS011;68938;48.150;14.004;2024-02-26T10:44:16;13.40;;;12.20;;
3259;SDS011;68938;48.150;14.004;2024-02-26T10:46:46;14.03;;;12.63;;
3259;SDS011;68938;48.150;14.004;2024-02-26T10:49:14;11.33;;;10.33;;
3259;SDS011;68938;48.150;14.004;2024-02-26T10:51:43;13.03;;;11.70;;
3259;SDS011;68938;48.150;14.004;2024-02-26T10:54:12;14.23;;;12.43;;
3259;SDS011;68938;48.150;14.004;2024-02-26T10:56:43;12.73;;;11.43;;
3259;SDS011;68938;48.150;14.004;2024-02-26T10:59:13;12.33;;;11.20;;
3259;SDS011;68938;48.150;14.004;2024-02-26T11:01:42;13.17;;;11.97;;
3259;SDS011;68938;48.150;14.004;2024-02-26T11:04:10;11.87;;;10.80;;
3259;SDS011;68938;48.150;14.004;2024-02-26T11:06:37;13.13;;;11.83;;
3259;SDS011;68938;48.150;14.004;2024-02-26T11:09:05;11.53;;;10.50;;
3259;SDS011;68938;48.150;14.004;2024-02-26T11:11:34;12.27;;;11.07;;
3259;SDS011;68938;48.150;14.004;2024-02-26T11:14:02;11.60;;;10.63;;
3259;SDS011;68938;48.150;14.004;2024-02-26T11:16:30;10.07;;;9.17;;
3259;SDS011;68938;48.150;14.004;2024-02-26T11:18:57;12.80;;;11.50;;
3259;SDS011;68938;48.150;14.004;2024-02-26T11:21:27;13.23;;;11.40;;
3259;SDS011;68938;48.150;14.004;2024-02-26T11:23:54;12.03;;;10.93;;
3259;SDS011;68938;48.150;14.004;2024-02-26T11:26:21;11.77;;;10.77;;
3259;SDS011;68938;48.150;14.004;2024-02-26T11:28:50;13.47;;;12.17;;
3259;SDS011;68938;48.150;14.004;2024-02-26T11:31:18;12.40;;;11.07;;
3259;SDS011;68938;48.150;14.004;2024-02-26T11:33:45;11.70;;;10.63;;
3259;SDS011;68938;48.150;14.004;2024-02-26T11:36:13;13.03;;;11.83;;
3259;SDS011;68938;48.150;14.004;2024-02-26T11:38:41;11.90;;;10.77;;
3259;SDS011;68938;48.150;14.004;2024-02-26T11:41:07;11.20;;;10.30;;
3259;SDS011;68938;48.150;14.004;2024-02-26T11:43:50;11.30;;;10.40;;
3259;SDS011;68938;48.150;14.004;2024-02-26T11:46:25;11.87;;;10.87;;
3259;SDS011;68938;48.150;14.004;2024-02-26T11:49:03;11.00;;;10.00;;
3259;SDS011;68938;48.150;14.004;2024-02-26T11:51:50;10.80;;;9.83;;
3259;SDS011;68938;48.150;14.004;2024-02-26T11:59:56;10.53;;;9.73;;
3259;SDS011;68938;48.150;14.004;2024-02-26T12:02:38;11.57;;;10.53;;
3259;SDS011;68938;48.150;14.004;2024-02-26T12:05:13;11.00;;;9.23;;
3259;SDS011;68938;48.150;14.004;2024-02-26T12:07:54;9.50;;;8.50;;
3259;SDS011;68938;48.150;14.004;2024-02-26T12:10:33;9.03;;;8.23;;
3259;SDS011;68938;48.150;14.004;2024-02-26T12:13:08;11.00;;;9.23;;
3259;SDS011;68938;48.150;14.004;2024-02-26T12:15:55;9.90;;;9.00;;
3259;SDS011;68938;48.150;14.004;2024-02-26T12:18:24;9.83;;;9.03;;
3259;SDS011;68938;48.150;14.004;2024-02-26T12:20:58;11.40;;;8.37;;
3259;SDS011;68938;48.150;14.004;2024-02-26T12:23:29;9.73;;;8.80;;
3259;SDS011;68938;48.150;14.004;2024-02-26T12:26:00;9.60;;;8.73;;
3259;SDS011;68938;48.150;14.004;2024-02-26T12:28:32;9.60;;;8.70;;
3259;SDS011;68938;48.150;14.004;2024-02-26T12:31:00;8.30;;;7.60;;
3259;SDS011;68938;48.150;14.004;2024-02-26T12:33:27;8.70;;;7.93;;
3259;SDS011;68938;48.150;14.004;2024-02-26T12:35:56;10.63;;;9.67;;
3259;SDS011;68938;48.150;14.004;2024-02-26T12:38:24;10.50;;;9.50;;
3259;SDS011;68938;48.150;14.004;2024-02-26T12:40:51;10.77;;;9.87;;
3259;SDS011;68938;48.150;14.004;2024-02-26T12:43:18;8.10;;;7.50;;
3259;SDS011;68938;48.150;14.004;2024-02-26T12:45:45;10.80;;;9.80;;
3259;SDS011;68938;48.150;14.004;2024-02-26T12:48:12;10.57;;;9.73;;
3259;SDS011;68938;48.150;14.004;2024-02-26T12:50:40;10.63;;;9.70;;
3259;SDS011;68938;48.150;14.004;2024-02-26T12:53:12;9.53;;;8.73;;
3259;SDS011;68938;48.150;14.004;2024-02-26T12:55:39;11.00;;;9.90;;
3259;SDS011;68938;48.150;14.004;2024-02-26T12:58:06;9.77;;;8.87;;
3259;SDS011;68938;48.150;14.004;2024-02-26T13:00:34;9.00;;;8.40;;
3259;SDS011;68938;48.150;14.004;2024-02-26T13:03:01;11.50;;;10.53;;
3259;SDS011;68938;48.150;14.004;2024-02-26T13:05:29;10.10;;;9.10;;
3259;SDS011;68938;48.150;14.004;2024-02-26T13:07:57;11.00;;;10.07;;
3259;SDS011;68938;48.150;14.004;2024-02-26T13:10:24;12.00;;;9.30;;
3259;SDS011;68938;48.150;14.004;2024-02-26T13:12:52;10.47;;;9.57;;
3259;SDS011;68938;48.150;14.004;2024-02-26T13:15:19;11.30;;;10.30;;
3259;SDS011;68938;48.150;14.004;2024-02-26T13:17:48;12.20;;;11.13;;
3259;SDS011;68938;48.150;14.004;2024-02-26T13:20:29;13.47;;;12.23;;
3259;SDS011;68938;48.150;14.004;2024-02-26T13:23:04;11.50;;;10.60;;
3259;SDS011;68938;48.150;14.004;2024-02-26T13:25:35;12.20;;;11.00;;
3259;SDS011;68938;48.150;14.004;2024-02-26T13:28:06;13.00;;;11.70;;
3259;SDS011;68938;48.150;14.004;2024-02-26T13:30:36;12.03;;;10.73;;
3259;SDS011;68938;48.150;14.004;2024-02-26T13:33:07;11.43;;;10.43;;
3259;SDS011;68938;48.150;14.004;2024-02-26T13:35:38;10.30;;;8.77;;
3259;SDS011;68938;48.150;14.004;2024-02-26T13:38:06;10.27;;;9.37;;
3259;SDS011;68938;48.150;14.004;2024-02-26T13:40:34;10.63;;;9.63;;
3259;SDS011;68938;48.150;14.004;2024-02-26T13:43:01;9.07;;;8.30;;
3259;SDS011;68938;48.150;14.004;2024-02-26T13:45:29;8.60;;;8.00;;
3259;SDS011;68938;48.150;14.004;2024-02-26T13:48:01;8.03;;;7.30;;
3259;SDS011;68938;48.150;14.004;2024-02-26T13:50:31;9.63;;;8.63;;
3259;SDS011;68938;48.150;14.004;2024-02-26T13:52:58;7.93;;;7.13;;
3259;SDS011;68938;48.150;14.004;2024-02-26T13:55:25;7.13;;;6.67;;
3259;SDS011;68938;48.150;14.004;2024-02-26T13:57:52;7.30;;;6.60;;
3259;SDS011;68938;48.150;14.004;2024-02-26T14:00:20;10.00;;;8.07;;
3259;SDS011;68938;48.150;14.004;2024-02-26T14:02:47;7.17;;;6.67;;
3259;SDS011;68938;48.150;14.004;2024-02-26T14:05:14;7.70;;;7.00;;
3259;SDS011;68938;48.150;14.004;2024-02-26T14:07:41;8.47;;;7.50;;
3259;SDS011;68938;48.150;14.004;2024-02-26T14:10:12;6.87;;;6.27;;
3259;SDS011;68938;48.150;14.004;2024-02-26T14:12:39;7.97;;;6.80;;
3259;SDS011;68938;48.150;14.004;2024-02-26T14:15:06;7.60;;;7.00;;
3259;SDS011;68938;48.150;14.004;2024-02-26T14:17:37;10.67;;;7.83;;
3259;SDS011;68938;48.150;14.004;2024-02-26T14:20:04;8.03;;;7.20;;
3259;SDS011;68938;48.150;14.004;2024-02-26T14:22:32;10.03;;;6.40;;
3259;SDS011;68938;48.150;14.004;2024-02-26T14:24:59;7.90;;;7.20;;
3259;SDS011;68938;48.150;14.004;2024-02-26T14:27:26;7.30;;;6.73;;
3259;SDS011;68938;48.150;14.004;2024-02-26T14:29:53;10.60;;;7.07;;
3259;SDS011;68938;48.150;14.004;2024-02-26T14:32:20;8.03;;;7.23;;